Time;durP1;ratioP1;P1;durP2;ratioP2;P2;SDS_P1;SDS_P2;PMS_P1;PMS_P2;Temp;Humidity;BMP_temperature;BMP_pressure;BME280_temperature;BME280_humidity;BME280_pressure;Samples;Min_cycle;Max_cycle;Signal;HPM_P1;HPM_P2
2021/07/01 00:02:00;;;;;;;2.30;2.20;;;21.90;38.70;;;;;;4817668;29;20184;-83
2021/07/01 00:04:25;;;;;;;2.27;2.10;;;21.90;38.80;;;;;;4818365;29;20507;-83
2021/07/01 00:06:52;;;;;;;2.10;2.00;;;22.00;38.80;;;;;;4817818;29;20446;-83
2021/07/01 00:09:18;;;;;;;2.13;2.03;;;21.90;38.80;;;;;;4818178;29;20191;-82
2021/07/01 00:11:46;;;;;;;2.77;2.47;;;21.90;38.80;;;;;;4818443;29;20952;-83
2021/07/01 00:14:13;;;;;;;2.03;2.00;;;21.90;38.80;;;;;;4817897;29;20430;-82
2021/07/01 00:16:39;;;;;;;2.60;2.50;;;21.90;38.70;;;;;;4815681;29;20469;-83
2021/07/01 00:19:06;;;;;;;2.33;2.23;;;21.90;38.80;;;;;;4816292;29;20410;-82
2021/07/01 00:21:34;;;;;;;1.90;1.83;;;21.90;38.80;;;;;;4816236;29;20989;-83
2021/07/01 00:24:00;;;;;;;2.10;2.00;;;21.90;38.80;;;;;;4815912;29;20461;-83
2021/07/01 00:26:26;;;;;;;1.90;1.80;;;21.90;38.80;;;;;;4816336;29;20454;-83
2021/07/01 00:28:52;;;;;;;2.07;1.97;;;21.90;38.80;;;;;;4815623;29;20188;-84
2021/07/01 00:31:17;;;;;;;2.30;2.20;;;21.90;38.80;;;;;;4814835;29;20247;-84
2021/07/01 00:33:43;;;;;;;2.03;1.93;;;21.90;38.80;;;;;;4815765;29;20533;-82
2021/07/01 00:36:08;;;;;;;2.00;1.90;;;21.90;38.80;;;;;;4815822;29;20359;-85
2021/07/01 00:38:34;;;;;;;2.30;2.20;;;21.90;38.80;;;;;;4814622;29;20267;-82
2021/07/01 00:41:00;;;;;;;2.10;2.00;;;21.90;38.90;;;;;;4812686;29;20257;-82
2021/07/01 00:43:25;;;;;;;2.30;2.20;;;21.90;38.80;;;;;;4812739;29;20244;-84
2021/07/01 00:45:51;;;;;;;2.07;1.97;;;21.90;38.80;;;;;;4812248;29;20197;-84
2021/07/01 00:48:17;;;;;;;2.20;2.10;;;21.90;38.80;;;;;;4811594;29;20236;-84
2021/07/01 00:50:43;;;;;;;2.30;2.20;;;21.90;38.80;;;;;;4812820;29;20216;-83
2021/07/01 00:53:11;;;;;;;2.20;2.10;;;21.90;38.80;;;;;;4812568;29;20434;-82
2021/07/01 00:55:37;;;;;;;2.10;2.00;;;21.90;38.80;;;;;;4813322;29;20438;-81
2021/07/01 00:58:05;;;;;;;2.43;2.33;;;21.90;38.80;;;;;;4813191;29;20477;-81
2021/07/01 01:01:01;;;;;;;2.00;1.90;;;21.90;38.90;;;;;;4812245;29;20422;-81
2021/07/01 01:03:27;;;;;;;2.03;1.93;;;21.90;38.80;;;;;;4811227;29;20922;-81
2021/07/01 01:05:52;;;;;;;2.23;2.13;;;21.90;38.90;;;;;;4810526;29;20528;-81
2021/07/01 01:08:18;;;;;;;2.17;2.07;;;21.90;38.90;;;;;;4810567;29;20914;-82
2021/07/01 01:10:44;;;;;;;2.40;2.30;;;21.90;38.80;;;;;;4809771;29;20188;-82
2021/07/01 01:13:10;;;;;;;1.80;1.80;;;21.90;38.80;;;;;;4809366;29;20220;-83
2021/07/01 01:15:36;;;;;;;2.20;2.10;;;21.90;38.90;;;;;;4807400;29;20358;-81
2021/07/01 01:18:02;;;;;;;2.20;2.10;;;21.90;38.90;;;;;;4806595;29;20466;-81
2021/07/01 01:20:28;;;;;;;2.40;2.30;;;21.90;38.80;;;;;;4807743;29;20421;-82
2021/07/01 01:22:53;;;;;;;2.10;2.00;;;21.90;38.80;;;;;;4806275;29;20433;-82
2021/07/01 01:25:19;;;;;;;2.20;2.10;;;21.90;38.80;;;;;;4808259;29;20739;-82
2021/07/01 01:27:45;;;;;;;2.10;2.00;;;21.90;38.80;;;;;;4815116;29;20569;-83
2021/07/01 01:30:11;;;;;;;2.37;2.27;;;21.90;38.80;;;;;;4817143;29;20188;-81
2021/07/01 01:32:38;;;;;;;2.03;1.93;;;21.90;38.80;;;;;;4816753;29;20216;-83
2021/07/01 01:35:04;;;;;;;2.20;2.10;;;21.90;38.80;;;;;;4815936;29;20422;-82
2021/07/01 01:37:29;;;;;;;2.13;2.03;;;21.90;38.90;;;;;;4817982;29;20468;-83
2021/07/01 01:39:55;;;;;;;2.30;2.20;;;21.90;38.90;;;;;;4816477;29;20427;-83
2021/07/01 01:42:20;;;;;;;1.87;1.87;;;21.90;38.80;;;;;;4816302;29;20187;-82
2021/07/01 01:44:46;;;;;;;2.10;2.00;;;21.90;38.90;;;;;;4817577;29;20216;-82
2021/07/01 01:47:19;;;;;;;1.97;1.87;;;21.90;38.90;;;;;;4817556;29;20212;-83
2021/07/01 01:49:46;;;;;;;2.20;2.10;;;21.90;38.90;;;;;;4816383;29;20184;-81
2021/07/01 01:52:12;;;;;;;1.83;1.83;;;21.90;39.60;;;;;;4817725;29;20418;-82
2021/07/01 01:54:38;;;;;;;2.17;2.10;;;21.90;38.90;;;;;;4817428;29;20419;-83
2021/07/01 01:57:04;;;;;;;2.10;2.00;;;21.90;38.90;;;;;;4817631;29;20542;-83
2021/07/01 01:59:30;;;;;;;2.20;2.10;;;21.90;38.90;;;;;;4817994;29;20414;-82
2021/07/01 02:01:55;;;;;;;2.20;2.10;;;21.90;38.90;;;;;;4819023;29;20180;-84
2021/07/01 02:04:21;;;;;;;1.70;1.70;;;21.90;38.90;;;;;;4817978;29;20218;-84
2021/07/01 02:06:46;;;;;;;2.43;2.33;;;21.90;38.90;;;;;;4816812;29;20262;-82
2021/07/01 02:09:12;;;;;;;2.03;1.93;;;21.80;38.80;;;;;;4818047;29;20196;-83
2021/07/01 02:11:38;;;;;;;2.43;2.33;;;21.90;38.90;;;;;;4816737;29;20199;-85
2021/07/01 02:14:03;;;;;;;2.10;2.00;;;21.80;38.80;;;;;;4817161;29;20188;-83
2021/07/01 02:16:29;;;;;;;2.63;1.93;;;21.90;39.00;;;;;;4814705;29;20220;-83
2021/07/01 02:18:55;;;;;;;1.80;1.80;;;21.80;38.80;;;;;;4815001;29;20181;-84
2021/07/01 02:21:21;;;;;;;2.23;2.13;;;21.80;38.80;;;;;;4815372;29;20215;-84
2021/07/01 02:23:48;;;;;;;2.10;2.03;;;21.90;38.90;;;;;;4814774;29;20189;-83
2021/07/01 02:26:14;;;;;;;1.97;1.90;;;21.80;38.80;;;;;;4815960;29;20207;-83
2021/07/01 02:28:40;;;;;;;2.23;2.13;;;21.80;38.80;;;;;;4814747;29;20431;-82
2021/07/01 02:31:05;;;;;;;1.83;1.83;;;21.80;38.80;;;;;;4815941;29;20410;-82
2021/07/01 02:33:31;;;;;;;1.80;1.80;;;21.80;38.80;;;;;;4815242;29;20211;-83
2021/07/01 02:35:56;;;;;;;2.00;1.90;;;21.80;38.80;;;;;;4814853;29;20225;-83
2021/07/01 02:38:22;;;;;;;2.00;1.90;;;21.80;38.90;;;;;;4814564;29;20216;-82
2021/07/01 02:40:47;;;;;;;2.33;2.23;;;21.80;38.90;;;;;;4813291;29;20191;-83
2021/07/01 02:43:13;;;;;;;2.00;1.90;;;21.80;38.90;;;;;;4813829;29;20188;-83
2021/07/01 02:45:39;;;;;;;2.20;2.10;;;21.80;38.80;;;;;;4812714;29;20296;-82
2021/07/01 02:48:06;;;;;;;2.07;1.97;;;21.80;38.90;;;;;;4813297;29;20211;-82
2021/07/01 02:50:32;;;;;;;2.00;2.00;;;21.80;38.90;;;;;;4814571;29;20668;-82
2021/07/01 02:52:57;;;;;;;1.80;1.80;;;21.80;38.90;;;;;;4814466;29;20445;-82
2021/07/01 02:55:23;;;;;;;2.10;2.00;;;21.80;38.80;;;;;;4813318;29;20438;-81
2021/07/01 02:57:49;;;;;;;1.80;1.80;;;21.80;38.80;;;;;;4813983;29;20257;-82
2021/07/01 03:00:15;;;;;;;1.80;1.80;;;21.80;38.90;;;;;;4814301;29;20204;-81
2021/07/01 03:02:41;;;;;;;2.07;1.97;;;21.80;38.90;;;;;;4812907;29;20180;-82
2021/07/01 03:05:07;;;;;;;2.17;2.07;;;21.80;38.90;;;;;;4813373;29;20419;-81
2021/07/01 03:07:33;;;;;;;2.10;2.10;;;21.80;39.00;;;;;;4814008;29;20497;-82
2021/07/01 03:09:59;;;;;;;2.23;2.13;;;21.80;38.90;;;;;;4814855;29;20466;-82
2021/07/01 03:12:24;;;;;;;2.30;2.20;;;21.80;38.90;;;;;;4812139;29;20185;-81
2021/07/01 03:14:51;;;;;;;2.27;2.17;;;21.80;38.90;;;;;;4812083;29;20188;-83
2021/07/01 03:17:16;;;;;;;1.93;1.93;;;21.80;38.90;;;;;;4812673;29;20224;-81
2021/07/01 03:19:42;;;;;;;2.20;2.10;;;21.80;38.90;;;;;;4812278;29;20429;-82
2021/07/01 03:22:08;;;;;;;2.20;2.10;;;21.80;38.90;;;;;;4813224;29;20198;-83
2021/07/01 03:24:34;;;;;;;2.03;1.93;;;21.80;38.90;;;;;;4812110;29;20505;-82
2021/07/01 03:27:00;;;;;;;2.40;2.30;;;21.80;38.90;;;;;;4810184;29;20809;-81
2021/07/01 03:29:29;;;;;;;2.03;1.93;;;21.80;38.90;;;;;;4811800;29;20185;-81
2021/07/01 03:31:54;;;;;;;2.20;2.10;;;21.80;38.90;;;;;;4810579;29;20429;-83
2021/07/01 03:34:20;;;;;;;1.90;1.90;;;21.80;38.90;;;;;;4809902;29;20494;-83
2021/07/01 03:36:46;;;;;;;2.00;2.00;;;21.80;38.90;;;;;;4809892;29;20225;-81
2021/07/01 03:39:11;;;;;;;3.23;2.10;;;21.80;38.90;;;;;;4809766;29;20692;-83
2021/07/01 03:41:37;;;;;;;2.20;2.10;;;21.80;38.90;;;;;;4809567;29;20285;-82
2021/07/01 03:44:03;;;;;;;2.37;2.30;;;21.80;38.90;;;;;;4810189;29;20265;-82
2021/07/01 03:46:29;;;;;;;2.40;2.20;;;21.80;38.90;;;;;;4809093;29;20208;-81
2021/07/01 03:48:54;;;;;;;2.07;1.97;;;21.80;38.90;;;;;;4809120;29;20445;-81
2021/07/01 03:51:20;;;;;;;2.07;2.00;;;21.80;38.90;;;;;;4809368;29;20185;-81
2021/07/01 03:53:46;;;;;;;2.33;2.23;;;21.80;38.90;;;;;;4808953;29;20567;-82
2021/07/01 03:56:12;;;;;;;1.97;1.97;;;21.80;38.90;;;;;;4807760;29;20196;-82
2021/07/01 03:58:37;;;;;;;2.30;2.20;;;21.80;38.90;;;;;;4808026;29;20209;-83
2021/07/01 04:01:03;;;;;;;2.20;2.20;;;21.80;38.90;;;;;;4807033;29;20429;-82
2021/07/01 04:03:29;;;;;;;2.47;2.37;;;21.80;38.90;;;;;;4807154;29;20193;-81
2021/07/01 04:05:54;;;;;;;2.00;2.00;;;21.80;38.90;;;;;;4808056;29;20266;-81
2021/07/01 04:08:20;;;;;;;2.17;2.17;;;21.80;38.90;;;;;;4807308;29;20559;-82
2021/07/01 04:10:45;;;;;;;2.10;2.10;;;21.80;38.90;;;;;;4807477;29;20216;-84
2021/07/01 04:13:11;;;;;;;2.10;2.10;;;21.80;38.90;;;;;;4806768;29;20185;-81
2021/07/01 04:15:37;;;;;;;2.60;2.40;;;21.80;38.90;;;;;;4806873;29;20205;-81
2021/07/01 04:18:15;;;;;;;2.30;2.30;;;21.80;39.00;;;;;;4805803;29;20209;-81
2021/07/01 04:20:42;;;;;;;2.40;2.30;;;21.80;38.90;;;;;;4806674;29;20214;-81
2021/07/01 04:23:08;;;;;;;2.23;2.23;;;21.80;38.90;;;;;;4806478;29;20422;-81
2021/07/01 04:25:34;;;;;;;2.37;2.30;;;21.80;38.90;;;;;;4805284;29;20446;-82
2021/07/01 04:28:00;;;;;;;2.10;2.10;;;21.80;38.90;;;;;;4805475;29;20426;-83
2021/07/01 04:30:27;;;;;;;2.10;2.00;;;21.80;38.90;;;;;;4805170;29;20438;-84
2021/07/01 04:33:31;;;;;;;2.07;2.00;;;21.80;38.90;;;;;;4802759;29;20430;-83
2021/07/01 04:35:57;;;;;;;2.20;2.10;;;21.80;38.90;;;;;;4801643;29;20510;-82
2021/07/01 04:38:23;;;;;;;1.83;1.83;;;21.80;38.90;;;;;;4806177;29;20462;-82
2021/07/01 04:40:51;;;;;;;2.20;2.10;;;21.80;38.90;;;;;;4805862;29;20588;-83
2021/07/01 04:43:19;;;;;;;2.13;2.13;;;21.80;38.90;;;;;;4807161;29;20229;-83
2021/07/01 04:45:47;;;;;;;2.30;2.10;;;21.80;38.90;;;;;;4805465;29;20445;-81
2021/07/01 04:48:16;;;;;;;2.33;2.17;;;21.80;38.90;;;;;;4806262;29;20453;-81
2021/07/01 04:50:47;;;;;;;2.40;2.30;;;21.80;38.90;;;;;;4806548;29;21014;-80
2021/07/01 04:53:12;;;;;;;2.30;2.03;;;21.80;38.90;;;;;;4792581;29;20438;-79
2021/07/01 04:55:44;;;;;;;2.27;2.17;;;21.80;39.00;;;;;;4806221;29;20459;-79
2021/07/01 04:58:10;;;;;;;2.40;2.20;;;21.80;39.00;;;;;;4806497;29;20804;-80
2021/07/01 05:00:35;;;;;;;2.53;2.40;;;21.80;38.90;;;;;;4792882;29;20453;-79
2021/07/01 05:03:05;;;;;;;3.03;2.77;;;21.80;38.90;;;;;;4791069;29;20177;-80
2021/07/01 05:05:31;;;;;;;3.00;2.80;;;21.80;38.90;;;;;;4817909;29;20246;-80
2021/07/01 05:08:09;;;;;;;3.20;3.00;;;21.80;38.90;;;;;;4810785;29;20426;-81
2021/07/01 05:10:35;;;;;;;3.07;2.87;;;21.90;39.00;;;;;;4808676;29;20708;-81
2021/07/01 05:13:01;;;;;;;3.37;2.90;;;21.90;39.00;;;;;;4808593;29;20438;-81
2021/07/01 05:16:01;;;;;;;2.77;2.57;;;21.90;39.00;;;;;;4808707;29;20479;-79
2021/07/01 05:18:27;;;;;;;2.57;2.47;;;21.90;39.10;;;;;;4778342;29;20646;-82
2021/07/01 05:21:09;;;;;;;;;;;;;;;;;;;;;
2021/07/01 05:24:19;;;;;;;3.17;2.97;;;21.90;39.00;;;;;;4813421;29;20267;-82
2021/07/01 05:26:45;;;;;;;3.07;2.87;;;21.90;39.00;;;;;;4783468;29;20450;-82
2021/07/01 05:29:17;;;;;;;2.93;2.47;;;21.90;39.10;;;;;;4811181;29;20521;-81
2021/07/01 05:31:42;;;;;;;3.03;2.80;;;21.90;39.10;;;;;;4809674;29;20462;-81
2021/07/01 05:34:08;;;;;;;3.10;2.90;;;21.90;39.00;;;;;;4810211;29;20429;-80
2021/07/01 05:36:34;;;;;;;2.70;2.50;;;21.90;39.00;;;;;;4809801;29;20209;-81
2021/07/01 05:39:06;;;;;;;2.73;2.63;;;21.90;39.10;;;;;;4812251;29;20181;-81
2021/07/01 05:41:37;;;;;;;2.90;2.80;;;21.90;39.70;;;;;;4808166;29;20640;-80
2021/07/01 05:44:03;;;;;;;3.40;3.20;;;21.90;39.10;;;;;;4809747;29;20425;-82
2021/07/01 05:46:30;;;;;;;4.03;3.07;;;21.90;39.10;;;;;;4809227;29;20535;-81
2021/07/01 05:48:56;;;;;;;7.90;2.80;;;21.90;39.10;;;;;;4808535;29;20533;-81
2021/07/01 05:51:23;;;;;;;3.77;3.30;;;21.90;39.10;;;;;;4810445;29;20441;-81
2021/07/01 05:56:38;;;;;;;3.47;2.90;;;21.90;39.20;;;;;;4810909;29;20441;-80
2021/07/01 05:59:06;;;;;;;6.37;3.00;;;21.90;39.20;;;;;;4809524;29;20441;-81
2021/07/01 06:01:32;;;;;;;2.93;2.73;;;21.90;39.10;;;;;;4809390;29;20425;-80
2021/07/01 06:04:08;;;;;;;3.10;2.90;;;21.90;39.20;;;;;;4808238;29;20425;-81
2021/07/01 06:06:35;;;;;;;2.90;2.70;;;21.90;39.20;;;;;;4806311;29;20454;-79
2021/07/01 06:09:03;;;;;;;5.90;3.07;;;21.90;39.10;;;;;;4806606;29;20441;-79
2021/07/01 06:11:42;;;;;;;3.40;3.00;;;21.90;39.10;;;;;;4807771;29;20455;-80
2021/07/01 06:14:08;;;;;;;2.80;2.70;;;21.90;39.00;;;;;;4809446;29;20426;-79
2021/07/01 06:16:35;;;;;;;4.00;3.10;;;21.90;39.00;;;;;;4808765;29;20991;-82
2021/07/01 06:19:08;;;;;;;3.83;3.50;;;21.90;38.90;;;;;;4809254;29;20536;-81
2021/07/01 06:21:34;;;;;;;2.83;2.63;;;21.90;38.90;;;;;;4808708;29;20466;-80
2021/07/01 06:24:13;;;;;;;2.70;2.50;;;21.90;38.90;;;;;;4808919;29;20445;-84
2021/07/01 06:27:05;;;;;;;2.80;2.60;;;21.80;38.60;;;;;;4811909;29;20189;-83
2021/07/01 06:29:31;;;;;;;3.77;2.43;;;21.80;38.50;;;;;;4821025;29;20415;-81
2021/07/01 06:31:56;;;;;;;2.87;2.77;;;21.80;38.50;;;;;;4808017;29;20942;-82
2021/07/01 06:34:22;;;;;;;2.47;2.37;;;21.80;38.40;;;;;;4806428;29;20276;-84
2021/07/01 06:36:50;;;;;;;2.70;2.50;;;21.80;38.30;;;;;;4806725;29;20268;-80
2021/07/01 06:39:21;;;;;;;2.50;2.40;;;21.80;38.30;;;;;;4808138;29;20620;-81
2021/07/01 06:41:48;;;;;;;2.67;2.40;;;21.80;38.20;;;;;;4807543;29;20410;-80
2021/07/01 06:44:15;;;;;;;2.50;2.30;;;21.80;38.20;;;;;;4807811;29;20852;-80
2021/07/01 06:46:41;;;;;;;2.40;2.30;;;21.80;38.10;;;;;;4804128;29;21168;-78
2021/07/01 06:49:07;;;;;;;2.60;2.50;;;21.80;38.10;;;;;;4806273;29;20437;-80
2021/07/01 06:51:41;;;;;;;2.60;2.50;;;21.80;38.30;;;;;;4804640;29;20434;-80
2021/07/01 06:54:17;;;;;;;2.60;2.50;;;21.80;38.40;;;;;;4806928;29;20184;-83
2021/07/01 06:56:44;;;;;;;3.03;2.83;;;21.80;38.40;;;;;;4814880;29;20442;-79
2021/07/01 06:59:13;;;;;;;2.87;2.70;;;21.80;38.40;;;;;;4824016;29;20819;-81
2021/07/01 07:01:41;;;;;;;2.93;2.60;;;21.80;38.40;;;;;;4854012;29;20429;-83
2021/07/01 07:04:07;;;;;;;2.43;2.30;;;21.80;38.40;;;;;;4807473;29;20434;-80
2021/07/01 07:06:35;;;;;;;2.90;2.70;;;21.80;38.40;;;;;;4806474;29;20498;-80
2021/07/01 07:09:01;;;;;;;3.00;2.70;;;21.80;38.40;;;;;;4805009;29;20215;-78
2021/07/01 07:11:27;;;;;;;2.30;2.20;;;21.80;38.40;;;;;;4806037;29;20426;-79
2021/07/01 07:13:53;;;;;;;3.67;2.50;;;21.80;38.40;;;;;;4804925;29;20241;-80
2021/07/01 07:16:20;;;;;;;2.40;2.30;;;21.80;38.40;;;;;;4804928;29;20215;-81
2021/07/01 07:18:51;;;;;;;2.47;2.37;;;21.80;38.40;;;;;;4805293;29;21059;-80
2021/07/01 07:21:19;;;;;;;2.60;2.50;;;21.80;38.30;;;;;;4804853;29;20437;-81
2021/07/01 07:23:51;;;;;;;2.30;2.20;;;21.80;38.40;;;;;;4806827;29;20426;-80
2021/07/01 07:26:20;;;;;;;3.00;2.80;;;21.80;38.40;;;;;;4805796;29;20485;-81
2021/07/01 07:28:50;;;;;;;2.90;2.70;;;21.80;38.40;;;;;;4814889;29;21008;-80
2021/07/01 07:31:24;;;;;;;2.33;2.23;;;21.80;38.40;;;;;;4825684;29;20474;-80
2021/07/01 07:33:53;;;;;;;2.40;2.30;;;21.80;38.40;;;;;;4855319;29;20490;-80
2021/07/01 07:36:20;;;;;;;1.90;1.90;;;21.80;38.40;;;;;;4854707;29;20450;-82
2021/07/01 07:38:46;;;;;;;2.50;2.40;;;21.80;38.30;;;;;;4824721;29;20465;-81
2021/07/01 07:41:15;;;;;;;4.20;2.30;;;21.80;38.30;;;;;;4825247;29;20951;-80
2021/07/01 07:43:41;;;;;;;2.80;2.70;;;21.80;38.30;;;;;;4853836;29;20239;-80
2021/07/01 07:46:08;;;;;;;2.93;2.73;;;21.90;38.40;;;;;;4825052;29;20492;-81
2021/07/01 07:48:33;;;;;;;2.80;2.70;;;21.80;38.30;;;;;;4827895;29;20444;-80
2021/07/01 07:51:02;;;;;;;2.30;2.20;;;21.80;38.30;;;;;;4827141;29;20425;-80
2021/07/01 07:53:34;;;;;;;2.30;2.20;;;21.90;38.40;;;;;;4855213;29;20192;-80
2021/07/01 07:56:05;;;;;;;2.60;2.50;;;21.80;38.20;;;;;;4825472;29;20456;-80
2021/07/01 07:58:34;;;;;;;2.40;2.30;;;21.90;38.40;;;;;;4825602;29;20493;-79
2021/07/01 08:01:00;;;;;;;2.93;2.53;;;21.80;38.30;;;;;;4824378;29;20848;-79
2021/07/01 08:03:34;;;;;;;2.50;2.40;;;21.90;38.40;;;;;;4825115;29;20421;-79
2021/07/01 08:06:02;;;;;;;2.80;2.60;;;21.90;38.40;;;;;;4853910;29;21020;-78
2021/07/01 08:08:30;;;;;;;3.10;3.00;;;21.90;38.40;;;;;;4852778;29;20748;-80
2021/07/01 08:11:00;;;;;;;2.70;2.50;;;21.80;38.20;;;;;;4823570;29;20447;-81
2021/07/01 08:13:27;;;;;;;2.93;2.80;;;21.90;38.30;;;;;;4828850;29;20426;-79
2021/07/01 08:15:53;;;;;;;2.97;2.63;;;21.80;39.00;;;;;;4829844;29;20986;-80
2021/07/01 08:18:32;;;;;;;2.47;2.37;;;21.90;38.40;;;;;;4830754;29;20452;-81
2021/07/01 08:20:59;;;;;;;2.43;2.33;;;21.90;38.40;;;;;;4829380;29;20421;-79
2021/07/01 08:23:24;;;;;;;2.23;2.13;;;21.90;38.30;;;;;;4829243;29;20410;-81
2021/07/01 08:25:52;;;;;;;2.43;2.33;;;21.90;38.40;;;;;;4858805;29;20452;-82
2021/07/01 08:28:20;;;;;;;3.43;2.93;;;21.90;38.30;;;;;;4818605;29;20181;-81
2021/07/01 08:30:51;;;;;;;2.93;2.73;;;21.90;38.40;;;;;;4812951;29;20429;-81
2021/07/01 08:33:19;;;;;;;3.17;2.97;;;21.90;38.30;;;;;;4810953;29;20433;-79
2021/07/01 08:35:53;;;;;;;3.30;3.00;;;21.90;38.30;;;;;;4815244;29;20441;-80
2021/07/01 08:38:19;;;;;;;3.10;2.90;;;21.90;38.30;;;;;;4829595;29;20461;-81
2021/07/01 08:40:49;;;;;;;2.87;2.77;;;21.90;38.30;;;;;;4829670;29;20413;-82
2021/07/01 08:43:19;;;;;;;3.03;2.70;;;21.90;38.30;;;;;;4829374;29;20519;-80
2021/07/01 08:46:01;;;;;;;3.40;3.13;;;21.90;38.30;;;;;;4848995;29;20450;-80
2021/07/01 08:48:41;;;;;;;3.43;2.60;;;21.90;38.30;;;;;;4825892;29;20458;-80
2021/07/01 08:51:10;;;;;;;3.27;3.07;;;21.90;38.30;;;;;;4812406;29;20421;-80
2021/07/01 08:54:12;;;;;;;2.80;2.70;;;21.90;38.30;;;;;;4811296;29;20422;-81
2021/07/01 08:56:39;;;;;;;2.93;2.80;;;21.90;38.30;;;;;;4811097;29;20457;-80
2021/07/01 08:59:06;;;;;;;3.30;3.10;;;21.90;38.30;;;;;;4811658;29;20430;-81
2021/07/01 09:01:32;;;;;;;3.03;2.83;;;21.90;38.20;;;;;;4809629;29;20821;-81
2021/07/01 09:03:58;;;;;;;3.00;2.90;;;21.90;38.30;;;;;;4811192;29;20414;-81
2021/07/01 09:06:26;;;;;;;3.20;3.00;;;21.90;38.30;;;;;;4810403;29;20235;-80
2021/07/01 09:08:53;;;;;;;3.00;2.90;;;21.90;38.20;;;;;;4810811;29;20433;-79
2021/07/01 09:11:22;;;;;;;3.23;2.93;;;21.90;38.20;;;;;;4811356;29;20475;-80
2021/07/01 09:13:50;;;;;;;3.30;3.10;;;21.90;38.20;;;;;;4811553;29;20953;-80
2021/07/01 09:16:16;;;;;;;3.40;3.30;;;21.90;38.20;;;;;;4811806;29;20470;-79
2021/07/01 09:18:45;;;;;;;2.50;2.40;;;21.90;38.20;;;;;;4810129;29;20530;-82
2021/07/01 09:21:12;;;;;;;4.50;2.90;;;21.90;38.20;;;;;;4811664;29;20874;-79
2021/07/01 09:23:45;;;;;;;3.03;2.87;;;21.90;38.20;;;;;;4811380;29;20422;-81
2021/07/01 09:26:21;;;;;;;3.67;3.47;;;21.90;38.00;;;;;;4812561;29;20437;-80
2021/07/01 09:28:49;;;;;;;2.33;2.23;;;21.90;38.00;;;;;;4809800;29;20438;-81
2021/07/01 09:31:21;;;;;;;3.23;2.93;;;21.90;38.00;;;;;;4810364;29;20791;-80
2021/07/01 09:33:49;;;;;;;3.60;3.40;;;21.90;38.00;;;;;;4809908;29;20513;-80
2021/07/01 09:36:18;;;;;;;2.80;2.70;;;21.90;37.90;;;;;;4818916;29;20535;-82
2021/07/01 09:38:46;;;;;;;2.90;2.80;;;21.90;38.00;;;;;;4856875;29;20477;-82
2021/07/01 09:41:13;;;;;;;2.97;2.80;;;21.90;38.00;;;;;;4813146;29;20419;-81
2021/07/01 09:43:46;;;;;;;2.80;2.70;;;21.90;38.00;;;;;;4812889;29;20422;-83
2021/07/01 09:46:20;;;;;;;2.80;2.70;;;21.90;38.00;;;;;;4839661;29;20446;-83
2021/07/01 09:48:49;;;;;;;2.77;2.60;;;21.90;38.00;;;;;;4842025;29;20450;-81
2021/07/01 09:51:16;;;;;;;3.17;2.93;;;21.90;38.00;;;;;;4810206;29;20422;-81
2021/07/01 09:53:48;;;;;;;3.10;3.00;;;21.90;38.00;;;;;;4840362;29;20423;-81
2021/07/01 09:56:26;;;;;;;3.17;2.93;;;21.90;38.00;;;;;;4810984;29;20434;-82
2021/07/01 09:59:00;;;;;;;3.53;3.33;;;21.90;38.00;;;;;;4841572;29;20477;-82
2021/07/01 10:01:32;;;;;;;2.73;2.63;;;21.90;38.00;;;;;;4810518;29;20509;-80
2021/07/01 10:04:01;;;;;;;3.23;3.03;;;21.90;38.00;;;;;;4840584;29;20513;-81
2021/07/01 10:06:27;;;;;;;3.43;3.33;;;21.90;38.00;;;;;;4811074;29;20438;-81
2021/07/01 10:08:56;;;;;;;3.10;3.00;;;21.90;38.00;;;;;;4810582;29;20429;-81
2021/07/01 10:11:42;;;;;;;3.47;3.30;;;21.90;37.90;;;;;;4810818;29;20429;-82
2021/07/01 10:14:12;;;;;;;3.07;2.90;;;21.90;37.90;;;;;;4809887;29;20493;-81
2021/07/01 10:16:38;;;;;;;3.33;3.13;;;21.90;37.90;;;;;;4810410;29;20461;-82
2021/07/01 10:19:09;;;;;;;3.30;3.00;;;21.90;37.90;;;;;;4809241;29;20434;-81
2021/07/01 10:21:36;;;;;;;3.77;3.13;;;21.90;37.90;;;;;;4810170;29;20482;-81
2021/07/01 10:24:19;;;;;;;3.00;2.90;;;21.90;37.90;;;;;;4810584;29;20418;-81
2021/07/01 10:26:49;;;;;;;3.40;3.30;;;21.90;37.90;;;;;;4811144;29;20438;-81
2021/07/01 10:29:16;;;;;;;3.60;3.30;;;21.90;37.90;;;;;;4810568;29;20433;-82
2021/07/01 10:32:15;;;;;;;2.97;2.87;;;21.90;37.90;;;;;;4811178;29;20449;-82
2021/07/01 10:34:50;;;;;;;3.40;3.20;;;21.90;37.90;;;;;;4809333;29;20937;-82
2021/07/01 10:37:21;;;;;;;3.77;3.60;;;21.90;37.90;;;;;;4810391;29;20550;-83
2021/07/01 10:39:49;;;;;;;3.70;3.40;;;21.90;37.90;;;;;;4810092;29;20430;-83
2021/07/01 10:42:16;;;;;;;3.07;2.93;;;21.90;37.90;;;;;;4812926;29;20429;-82
2021/07/01 10:44:43;;;;;;;3.17;3.07;;;21.90;37.80;;;;;;4810757;29;20426;-81
2021/07/01 10:47:41;;;;;;;3.20;3.10;;;21.90;37.80;;;;;;4811031;29;20457;-81
2021/07/01 10:50:28;;;;;;;3.20;3.10;;;21.90;37.80;;;;;;4780324;29;20525;-81
2021/07/01 10:52:53;;;;;;;3.17;3.07;;;21.90;37.80;;;;;;4808430;29;20434;-79
2021/07/01 10:55:19;;;;;;;3.00;2.90;;;21.90;37.80;;;;;;4811179;29;20449;-82
2021/07/01 10:58:04;;;;;;;3.00;2.80;;;21.90;37.90;;;;;;4809713;29;20211;-81
2021/07/01 11:00:41;;;;;;;3.43;3.33;;;21.90;37.90;;;;;;4806293;29;20204;-82
2021/07/01 11:03:29;;;;;;;3.33;3.13;;;21.90;37.90;;;;;;4807863;29;20410;-80
2021/07/01 11:05:56;;;;;;;3.33;3.23;;;21.90;37.90;;;;;;4807719;29;20485;-81
2021/07/01 11:08:32;;;;;;;3.37;3.27;;;21.90;37.90;;;;;;4807071;29;20430;-82
2021/07/01 11:11:01;;;;;;;3.23;3.13;;;21.90;37.90;;;;;;4807883;29;20422;-81
2021/07/01 11:13:28;;;;;;;3.67;3.47;;;21.80;37.80;;;;;;4808364;29;20546;-81
2021/07/01 11:16:07;;;;;;;3.13;2.93;;;21.90;37.80;;;;;;4806191;29;20484;-79
2021/07/01 11:18:35;;;;;;;3.17;2.97;;;21.90;37.80;;;;;;4807424;29;20469;-80
2021/07/01 11:21:08;;;;;;;2.90;2.80;;;21.90;37.80;;;;;;4806815;29;20426;-79
2021/07/01 11:23:33;;;;;;;3.37;3.07;;;21.90;37.80;;;;;;4806139;29;20409;-79
2021/07/01 11:25:59;;;;;;;2.90;2.70;;;21.90;37.90;;;;;;4805184;29;20442;-82
2021/07/01 11:28:31;;;;;;;2.97;2.87;;;21.90;37.90;;;;;;4806641;29;20216;-81
2021/07/01 11:31:02;;;;;;;3.10;3.00;;;21.90;37.90;;;;;;4805805;29;20696;-83
2021/07/01 11:33:30;;;;;;;3.33;3.23;;;21.90;37.90;;;;;;4805847;29;20426;-80
2021/07/01 11:36:14;;;;;;;3.43;3.27;;;21.80;37.70;;;;;;4802934;29;20910;-81
2021/07/01 11:38:40;;;;;;;4.73;4.23;;;21.90;37.90;;;;;;4806531;29;20469;-80
2021/07/01 11:41:06;;;;;;;3.57;3.20;;;21.90;37.90;;;;;;4831471;29;20422;-82
2021/07/01 11:43:34;;;;;;;3.47;3.37;;;21.90;37.90;;;;;;4862776;29;20421;-81
2021/07/01 11:46:03;;;;;;;3.50;3.30;;;21.90;38.00;;;;;;4831055;29;20952;-81
2021/07/01 11:48:30;;;;;;;3.60;3.30;;;21.80;37.90;;;;;;4828300;29;20476;-81
2021/07/01 11:50:57;;;;;;;3.27;3.00;;;21.90;38.00;;;;;;4856728;29;20429;-80
2021/07/01 11:56:59;;;;;;;4.07;3.80;;;21.90;38.00;;;;;;4834397;29;20943;-83
2021/07/01 11:59:41;;;;;;;5.07;4.87;;;21.90;38.10;;;;;;4858090;29;20507;-82
2021/07/01 12:02:07;;;;;;;5.77;5.37;;;21.90;38.10;;;;;;4854884;29;20529;-82
2021/07/01 12:04:36;;;;;;;6.00;5.60;;;21.90;38.20;;;;;;4855008;29;20429;-81
2021/07/01 12:07:22;;;;;;;8.27;7.23;;;21.90;38.20;;;;;;4844000;29;20232;-80
2021/07/01 12:09:48;;;;;;;8.10;7.30;;;21.90;38.30;;;;;;4807265;29;20426;-81
2021/07/01 12:12:21;;;;;;;9.73;7.47;;;21.90;38.40;;;;;;4805857;29;20989;-79
2021/07/01 12:15:07;;;;;;;6.70;6.10;;;21.90;38.40;;;;;;4806670;29;20486;-80
2021/07/01 12:17:53;;;;;;;9.30;7.23;;;21.90;38.50;;;;;;4834382;29;20521;-80
2021/07/01 12:20:32;;;;;;;7.27;6.57;;;21.90;38.50;;;;;;4807270;29;20797;-79
2021/07/01 12:23:11;;;;;;;8.23;7.50;;;21.90;38.50;;;;;;4836897;29;20880;-80
2021/07/01 12:25:43;;;;;;;7.40;6.80;;;21.90;38.50;;;;;;4828053;29;20902;-80
2021/07/01 12:28:14;;;;;;;6.20;5.70;;;21.90;38.50;;;;;;4792829;29;20540;-80
2021/07/01 12:31:03;;;;;;;6.97;6.37;;;21.90;38.50;;;;;;4806068;29;20430;-80
2021/07/01 12:33:53;;;;;;;6.30;5.87;;;21.90;38.50;;;;;;4805637;29;20407;-81
2021/07/01 12:36:23;;;;;;;6.73;6.00;;;21.90;38.50;;;;;;4806190;29;20529;-79
2021/07/01 12:39:04;;;;;;;7.73;5.47;;;21.90;38.50;;;;;;4806747;29;20498;-82
2021/07/01 12:41:38;;;;;;;6.80;5.10;;;21.90;38.40;;;;;;4806355;29;20509;-79
2021/07/01 12:44:06;;;;;;;5.40;5.00;;;21.90;38.40;;;;;;4805395;29;20428;-80
2021/07/01 12:46:46;;;;;;;5.97;5.47;;;21.90;38.40;;;;;;4805788;29;20808;-80
2021/07/01 12:49:15;;;;;;;6.13;4.90;;;21.90;38.40;;;;;;4804206;29;20486;-79
2021/07/01 12:51:42;;;;;;;6.30;5.70;;;21.90;38.30;;;;;;4805709;29;20471;-80
2021/07/01 12:54:40;;;;;;;5.50;5.00;;;21.90;38.30;;;;;;4804854;29;20480;-80
2021/07/01 12:57:07;;;;;;;5.13;4.63;;;21.90;38.30;;;;;;4779702;29;20553;-80
2021/07/01 12:59:53;;;;;;;10.53;4.83;;;21.90;38.30;;;;;;4807940;29;20513;-82
2021/07/01 13:02:27;;;;;;;5.03;4.73;;;21.90;38.20;;;;;;4808059;29;20442;-81
2021/07/01 13:04:58;;;;;;;4.20;4.00;;;21.90;38.20;;;;;;4808043;29;20990;-81
2021/07/01 13:07:27;;;;;;;5.03;4.63;;;21.90;38.20;;;;;;4810457;29;20426;-80